Aviation Digital Data Service (ADDS)

Output produced by METARs form (1209 UTC 24 February 2018)
found at http://aviationweather.gov/adds/metars/
 
KDCA 241143Z 2412/2518 VRB04KT 1/4SM FG OVC002 
     FM241600 VRB04KT 1SM BR OVC003 
     FM241800 07005KT 3SM BR OVC005 
     FM242100 06006KT 2SM -SHRA BR OVC005 
     FM250300 08007KT 1SM -SHRADZ BR OVC003 
     FM250500 09006KT 3/4SM -SHRADZ BR OVC003 
     FM251000 12005KT 3/4SM -SHRA BR OVC003 
     FM251500 19012G20KT 5SM -SHRA OVC003